Time;durP1;ratioP1;P1;durP2;ratioP2;P2;SDS_P1;SDS_P2;PMS_P1;PMS_P2;Temp;Humidity;BMP_temperature;BMP_pressure;BME280_temperature;BME280_humidity;BME280_pressure;Samples;Min_cycle;Max_cycle;Signal;HPM_P1;HPM_P2
2022/01/02 00:00:14;;;;;;;40.23;14.17;;;8.30;99.90;;;;;;4965409;28;20237;-70
2022/01/02 00:02:42;;;;;;;22.40;11.50;;;8.40;99.90;;;;;;4962524;28;20211;-71
2022/01/02 00:05:12;;;;;;;24.10;12.57;;;8.40;99.90;;;;;;4966622;28;20233;-71
2022/01/02 00:07:48;;;;;;;23.23;12.07;;;8.40;99.90;;;;;;4967853;28;20201;-70
2022/01/02 00:10:18;;;;;;;24.83;12.27;;;8.50;99.90;;;;;;4962283;28;20580;-71
2022/01/02 00:12:52;;;;;;;34.03;12.33;;;8.60;99.90;;;;;;4968220;28;20636;-71
2022/01/02 00:15:22;;;;;;;36.30;13.00;;;8.60;99.90;;;;;;4966251;28;20224;-70
2022/01/02 00:17:54;;;;;;;21.57;12.30;;;8.70;99.90;;;;;;4962275;28;20199;-69
2022/01/02 00:20:31;;;;;;;21.33;12.00;;;8.60;99.90;;;;;;4963705;28;20201;-71
2022/01/02 00:23:07;;;;;;;21.30;10.97;;;8.70;99.90;;;;;;4968577;28;20212;-71
2022/01/02 00:25:39;;;;;;;20.70;11.00;;;8.70;99.90;;;;;;4969941;28;20585;-72
2022/01/02 00:28:06;;;;;;;20.80;11.80;;;8.70;99.90;;;;;;4965822;28;20686;-70
2022/01/02 00:30:41;;;;;;;24.93;11.43;;;8.70;99.90;;;;;;4983775;28;20584;-71
2022/01/02 00:33:09;;;;;;;18.80;10.57;;;8.70;99.90;;;;;;4966764;28;20226;-71
2022/01/02 00:35:37;;;;;;;19.93;11.13;;;8.70;99.90;;;;;;4967020;28;20244;-70
2022/01/02 00:38:15;;;;;;;30.00;11.63;;;8.70;99.90;;;;;;4967402;28;20206;-70
2022/01/02 00:40:44;;;;;;;24.10;12.17;;;8.70;99.90;;;;;;4970751;28;20197;-70
2022/01/02 00:43:18;;;;;;;19.97;10.53;;;8.70;99.90;;;;;;4966720;28;20228;-73
2022/01/02 00:45:46;;;;;;;19.17;11.03;;;8.80;99.90;;;;;;4964368;28;20229;-71
2022/01/02 00:48:19;;;;;;;23.30;12.23;;;8.80;99.90;;;;;;4965193;28;20206;-70
2022/01/02 00:51:00;;;;;;;21.87;11.27;;;8.80;99.90;;;;;;4967766;28;20678;-71
2022/01/02 00:53:33;;;;;;;20.33;10.97;;;8.90;99.90;;;;;;4970287;28;20221;-71
2022/01/02 00:56:02;;;;;;;19.97;11.50;;;8.90;99.90;;;;;;4960063;28;20191;-70
2022/01/02 00:58:43;;;;;;;25.07;11.30;;;8.90;99.90;;;;;;4963210;28;20252;-73
2022/01/02 01:01:15;;;;;;;21.77;12.20;;;8.90;99.90;;;;;;4970776;28;20655;-70
2022/01/02 01:03:42;;;;;;;23.57;11.77;;;8.90;99.90;;;;;;4968171;28;20718;-70
2022/01/02 01:06:10;;;;;;;30.47;13.50;;;8.90;99.90;;;;;;4970926;28;20725;-70
2022/01/02 01:08:40;;;;;;;28.47;13.07;;;8.90;99.90;;;;;;4964803;28;20286;-70
2022/01/02 01:11:08;;;;;;;23.50;11.97;;;9.10;99.90;;;;;;4963320;28;20202;-70
2022/01/02 01:13:36;;;;;;;34.00;13.67;;;9.10;99.90;;;;;;4962374;28;20523;-70
2022/01/02 01:16:03;;;;;;;30.10;13.47;;;9.10;99.90;;;;;;4963558;28;20190;-69
2022/01/02 01:18:30;;;;;;;76.67;14.27;;;9.00;99.90;;;;;;4967848;28;20186;-71
2022/01/02 01:20:57;;;;;;;34.90;14.33;;;9.10;99.90;;;;;;4964423;28;20205;-70
2022/01/02 01:23:23;;;;;;;30.00;13.40;;;9.10;99.90;;;;;;4969141;28;20224;-68
2022/01/02 01:25:50;;;;;;;22.80;11.70;;;9.10;99.90;;;;;;4969936;28;20654;-72
2022/01/02 01:28:17;;;;;;;23.93;12.17;;;9.00;99.90;;;;;;4962266;28;20217;-70
2022/01/02 01:30:45;;;;;;;27.40;12.33;;;9.10;99.90;;;;;;4968235;28;20232;-69
2022/01/02 01:33:12;;;;;;;34.80;14.30;;;9.10;99.90;;;;;;4965015;28;20224;-72
2022/01/02 01:35:40;;;;;;;33.20;14.33;;;9.20;99.90;;;;;;4964653;28;20591;-70
2022/01/02 01:38:06;;;;;;;37.13;14.57;;;9.30;99.90;;;;;;4960649;28;20405;-70
2022/01/02 01:40:39;;;;;;;36.90;15.13;;;9.40;99.90;;;;;;4960825;28;20563;-71
2022/01/02 01:43:09;;;;;;;38.70;14.27;;;9.30;99.90;;;;;;4967739;28;20201;-72
2022/01/02 01:45:36;;;;;;;35.60;14.67;;;9.20;99.90;;;;;;4964716;28;20724;-72
2022/01/02 01:48:06;;;;;;;36.13;14.83;;;9.10;99.90;;;;;;4962630;28;20284;-69
2022/01/02 01:50:37;;;;;;;33.50;14.03;;;9.00;99.90;;;;;;4967584;28;20667;-70
2022/01/02 01:53:05;;;;;;;32.43;14.40;;;9.00;99.90;;;;;;4964860;28;20246;-70
2022/01/02 01:55:33;;;;;;;50.53;15.43;;;8.90;99.90;;;;;;4969141;28;20224;-71
2022/01/02 01:58:02;;;;;;;39.90;14.93;;;8.90;99.90;;;;;;4969118;28;20202;-70
2022/01/02 02:00:30;;;;;;;37.93;15.17;;;8.90;99.90;;;;;;4960852;28;20198;-72
2022/01/02 02:02:57;;;;;;;40.97;15.33;;;8.90;99.90;;;;;;4966095;28;20576;-73
2022/01/02 02:05:23;;;;;;;33.23;15.13;;;8.90;99.90;;;;;;4959133;28;20219;-68
2022/01/02 02:07:50;;;;;;;32.77;13.97;;;9.00;99.90;;;;;;4974867;28;20207;-70
2022/01/02 02:10:51;;;;;;;30.77;13.93;;;9.00;99.90;;;;;;4964311;28;20191;-72
2022/01/02 02:13:09;;;;;;;40.87;15.17;;;9.10;99.90;;;;;;4961962;28;20203;-72
2022/01/02 02:15:36;;;;;;;31.57;14.73;;;9.10;99.90;;;;;;4960596;28;20598;-69
2022/01/02 02:18:03;;;;;;;29.57;14.03;;;9.20;99.90;;;;;;4958268;28;20195;-70
2022/01/02 02:20:32;;;;;;;30.13;13.60;;;9.10;99.90;;;;;;4961410;28;20213;-72
2022/01/02 02:23:00;;;;;;;30.30;13.73;;;9.20;99.90;;;;;;4964836;28;20199;-70
2022/01/02 02:25:32;;;;;;;30.97;14.20;;;9.20;99.90;;;;;;4965477;28;20217;-71
2022/01/02 02:28:12;;;;;;;35.90;13.80;;;9.30;99.90;;;;;;4967036;28;20673;-71
2022/01/02 02:30:43;;;;;;;33.57;14.53;;;9.10;99.90;;;;;;4967193;28;20212;-70
2022/01/02 02:33:10;;;;;;;28.97;13.83;;;9.10;99.90;;;;;;4968580;28;20206;-71
2022/01/02 02:35:40;;;;;;;41.20;14.63;;;9.10;99.90;;;;;;4968796;28;20697;-70
2022/01/02 02:38:09;;;;;;;33.00;14.40;;;9.10;99.90;;;;;;4969049;28;20208;-70
2022/01/02 02:40:36;;;;;;;28.93;13.37;;;9.10;99.90;;;;;;4963708;28;20256;-73
2022/01/02 02:43:25;;;;;;;26.07;12.60;;;8.90;99.90;;;;;;4961341;28;20204;-69
2022/01/02 02:51:32;;;;;;;25.40;12.70;;;8.90;99.90;;;;;;4964761;28;20209;-71
2022/01/02 02:53:59;;;;;;;23.93;13.17;;;8.90;99.90;;;;;;4969406;28;20632;-70
2022/01/02 02:56:30;;;;;;;30.33;15.20;;;9.00;99.90;;;;;;4968190;28;20289;-70
2022/01/02 02:58:57;;;;;;;34.03;15.50;;;9.10;99.90;;;;;;4970072;28;20194;-68
2022/01/02 03:01:26;;;;;;;26.80;13.63;;;9.20;99.90;;;;;;4972136;28;20189;-70
2022/01/02 03:03:53;;;;;;;26.83;13.83;;;9.20;99.90;;;;;;4982170;28;20288;-70
2022/01/02 03:06:21;;;;;;;29.90;14.30;;;9.20;99.90;;;;;;4967061;28;20197;-70
2022/01/02 03:08:49;;;;;;;35.23;14.67;;;9.10;99.90;;;;;;4971522;28;20201;-71
2022/01/02 03:11:20;;;;;;;31.30;13.90;;;9.20;99.90;;;;;;4970021;28;20210;-71
2022/01/02 03:13:51;;;;;;;35.17;14.00;;;9.20;99.90;;;;;;4971252;28;20226;-70
2022/01/02 03:16:18;;;;;;;33.60;14.30;;;9.10;99.90;;;;;;4972773;28;20198;-70
2022/01/02 03:18:45;;;;;;;26.23;13.33;;;9.00;99.90;;;;;;4974569;28;20206;-70
2022/01/02 03:21:12;;;;;;;54.07;14.87;;;8.90;99.90;;;;;;4970229;28;20198;-71
2022/01/02 03:23:39;;;;;;;30.70;13.77;;;8.90;99.90;;;;;;4961112;28;20618;-71
2022/01/02 03:26:06;;;;;;;26.30;12.67;;;8.90;99.90;;;;;;4969648;28;20202;-71
2022/01/02 03:28:33;;;;;;;22.40;11.67;;;8.90;99.90;;;;;;4971616;28;20236;-69
2022/01/02 03:30:59;;;;;;;27.23;12.33;;;8.90;99.90;;;;;;4972131;28;20256;-73
2022/01/02 03:33:27;;;;;;;22.43;12.13;;;8.80;99.90;;;;;;4967877;28;20581;-72
2022/01/02 03:35:54;;;;;;;20.73;11.50;;;8.90;99.90;;;;;;4962020;28;20213;-71
2022/01/02 03:38:20;;;;;;;22.57;11.97;;;8.90;99.90;;;;;;4964703;28;20199;-71
2022/01/02 03:40:47;;;;;;;18.17;9.97;;;9.00;99.90;;;;;;4968614;28;20195;-71
2022/01/02 03:43:14;;;;;;;23.80;11.10;;;9.00;99.90;;;;;;4971722;28;20197;-72
2022/01/02 03:45:41;;;;;;;17.63;9.90;;;9.00;99.90;;;;;;4970785;28;20220;-71
2022/01/02 03:48:08;;;;;;;19.07;11.00;;;9.10;99.90;;;;;;4969641;28;20288;-71
2022/01/02 03:50:35;;;;;;;21.47;10.97;;;9.10;99.90;;;;;;4968247;28;20199;-71
2022/01/02 03:53:01;;;;;;;20.13;10.93;;;9.20;99.90;;;;;;4963117;28;20198;-71
2022/01/02 03:55:28;;;;;;;22.33;11.63;;;9.10;99.90;;;;;;4968781;28;20227;-73
2022/01/02 03:57:55;;;;;;;22.57;11.80;;;9.10;99.90;;;;;;4966212;28;20287;-70
2022/01/02 04:00:22;;;;;;;24.67;12.13;;;9.10;99.90;;;;;;4967847;28;20195;-72
2022/01/02 04:02:48;;;;;;;19.27;10.33;;;9.20;99.90;;;;;;4968463;28;20197;-72
2022/01/02 04:05:16;;;;;;;23.63;11.80;;;9.20;99.90;;;;;;4970928;28;20254;-70
2022/01/02 04:07:43;;;;;;;23.87;11.60;;;9.10;99.90;;;;;;4970423;28;20347;-71
2022/01/02 04:10:14;;;;;;;25.20;12.27;;;9.10;99.90;;;;;;4966948;28;20228;-71
2022/01/02 04:12:42;;;;;;;25.50;12.50;;;9.10;99.90;;;;;;4970324;28;20654;-70
2022/01/02 04:15:10;;;;;;;25.50;12.57;;;9.00;99.90;;;;;;4968530;28;20221;-71
2022/01/02 04:17:38;;;;;;;25.57;11.77;;;9.00;99.90;;;;;;4967551;28;20200;-71
2022/01/02 04:20:07;;;;;;;25.77;12.33;;;9.00;99.90;;;;;;4966987;28;20294;-71
2022/01/02 04:22:35;;;;;;;22.33;12.03;;;9.10;99.90;;;;;;4970117;28;20194;-72
2022/01/02 04:25:03;;;;;;;25.80;12.90;;;9.00;99.90;;;;;;4960573;28;20256;-70
2022/01/02 04:27:30;;;;;;;19.97;11.17;;;9.20;99.90;;;;;;4957725;28;20800;-71
2022/01/02 04:29:57;;;;;;;24.20;12.07;;;9.10;99.90;;;;;;4963202;28;20503;-72
2022/01/02 04:32:23;;;;;;;22.67;12.20;;;9.10;99.90;;;;;;4970869;28;20202;-71
2022/01/02 04:34:50;;;;;;;29.20;13.10;;;9.10;99.90;;;;;;4965773;28;20256;-70
2022/01/02 04:37:17;;;;;;;20.90;11.20;;;9.10;99.90;;;;;;4965375;28;20194;-71
2022/01/02 04:39:44;;;;;;;23.07;11.90;;;9.10;99.90;;;;;;4967765;28;20213;-67
2022/01/02 04:42:11;;;;;;;24.20;11.83;;;9.10;99.90;;;;;;4968508;28;20199;-71
2022/01/02 04:44:38;;;;;;;22.97;11.90;;;9.10;99.90;;;;;;4966818;28;20216;-71
2022/01/02 04:47:05;;;;;;;22.60;12.07;;;9.10;99.90;;;;;;4967510;28;20217;-68
2022/01/02 04:49:31;;;;;;;23.33;11.50;;;9.20;99.90;;;;;;4964771;28;20210;-68
2022/01/02 04:51:59;;;;;;;24.47;11.73;;;9.10;99.90;;;;;;4966697;28;20218;-71
2022/01/02 04:54:26;;;;;;;23.10;11.93;;;9.10;99.90;;;;;;4970267;28;20230;-68
2022/01/02 04:56:53;;;;;;;27.53;12.90;;;9.10;99.90;;;;;;4961927;28;20355;-71
2022/01/02 04:59:20;;;;;;;31.97;12.60;;;9.10;99.90;;;;;;4965377;28;20207;-70
2022/01/02 05:01:46;;;;;;;26.23;12.93;;;9.10;99.90;;;;;;4971498;28;20198;-71
2022/01/02 05:04:14;;;;;;;20.90;11.03;;;9.10;99.90;;;;;;4968773;28;20220;-70
2022/01/02 05:06:40;;;;;;;21.77;12.63;;;9.10;99.90;;;;;;4963595;28;20198;-71
2022/01/02 05:09:08;;;;;;;23.97;12.27;;;9.10;99.90;;;;;;4968813;28;20229;-71
2022/01/02 05:11:35;;;;;;;19.13;11.70;;;9.10;99.90;;;;;;4966883;28;20576;-71
2022/01/02 05:14:02;;;;;;;24.70;12.63;;;9.10;99.90;;;;;;4968575;28;20227;-71
2022/01/02 05:16:28;;;;;;;42.37;14.63;;;9.10;99.90;;;;;;4968988;28;20202;-70
2022/01/02 05:18:55;;;;;;;23.50;12.73;;;9.10;99.90;;;;;;4970144;28;20197;-70
2022/01/02 05:21:22;;;;;;;24.30;13.07;;;9.20;99.90;;;;;;4968427;28;20191;-72
2022/01/02 05:23:48;;;;;;;27.90;13.43;;;9.10;99.90;;;;;;4970780;28;20199;-70
2022/01/02 05:26:15;;;;;;;30.43;14.27;;;9.10;99.90;;;;;;4969108;28;20194;-70
2022/01/02 05:28:42;;;;;;;29.57;13.87;;;9.30;99.90;;;;;;4964742;28;20264;-70
2022/01/02 05:31:08;;;;;;;25.07;13.87;;;9.20;99.90;;;;;;4964737;28;20224;-70
2022/01/02 05:33:35;;;;;;;32.67;13.67;;;9.20;99.90;;;;;;4967276;28;20193;-70
2022/01/02 05:36:02;;;;;;;27.07;13.47;;;9.20;99.90;;;;;;4965883;28;20244;-68
2022/01/02 05:38:29;;;;;;;24.07;12.20;;;9.10;99.90;;;;;;4964899;28;20213;-73
2022/01/02 05:40:56;;;;;;;24.03;12.30;;;9.00;99.90;;;;;;4963431;28;20668;-71
2022/01/02 05:43:23;;;;;;;24.87;13.37;;;9.00;99.90;;;;;;4965872;28;20206;-70
2022/01/02 05:45:50;;;;;;;26.43;12.87;;;9.00;99.90;;;;;;4964749;28;20218;-72
2022/01/02 05:48:16;;;;;;;23.00;11.83;;;9.00;99.90;;;;;;4961702;28;20204;-70
2022/01/02 05:50:43;;;;;;;26.67;13.27;;;9.00;99.90;;;;;;4963814;28;20671;-70
2022/01/02 05:53:10;;;;;;;27.80;12.63;;;9.00;99.90;;;;;;4969883;28;20191;-71
2022/01/02 05:55:37;;;;;;;24.93;12.73;;;9.10;99.90;;;;;;4968104;28;20620;-70
2022/01/02 05:58:04;;;;;;;24.93;12.47;;;9.10;99.90;;;;;;4966336;28;20246;-71
2022/01/02 06:00:31;;;;;;;24.27;11.93;;;9.00;99.90;;;;;;4963944;28;20202;-72
2022/01/02 06:02:58;;;;;;;25.07;11.80;;;9.10;99.90;;;;;;4958505;28;20217;-72
2022/01/02 06:05:25;;;;;;;24.47;12.20;;;9.10;99.90;;;;;;4962647;28;20601;-72
2022/01/02 06:07:51;;;;;;;26.70;11.80;;;9.10;99.90;;;;;;4959543;28;20224;-70
2022/01/02 06:10:18;;;;;;;23.23;11.60;;;9.10;99.90;;;;;;4968117;28;20207;-72
2022/01/02 06:12:45;;;;;;;25.20;12.03;;;9.10;99.90;;;;;;4961740;28;20205;-70
2022/01/02 06:15:11;;;;;;;23.93;10.60;;;8.90;99.90;;;;;;4968048;28;20217;-70
2022/01/02 06:17:38;;;;;;;23.60;10.70;;;8.90;99.90;;;;;;4964208;28;20194;-71
2022/01/02 06:20:05;;;;;;;24.40;11.90;;;8.90;99.90;;;;;;4968210;28;20739;-71
2022/01/02 06:22:31;;;;;;;23.97;11.50;;;8.90;99.90;;;;;;4967850;28;20210;-70
2022/01/02 06:24:58;;;;;;;22.53;11.20;;;8.80;99.90;;;;;;4966041;28;20217;-72
2022/01/02 06:27:25;;;;;;;20.80;10.57;;;8.80;99.90;;;;;;4968670;28;20675;-71
2022/01/02 06:29:51;;;;;;;29.97;12.97;;;8.80;99.90;;;;;;4965247;28;20205;-68
2022/01/02 06:32:18;;;;;;;28.33;12.10;;;8.80;99.90;;;;;;4964592;28;20199;-71
2022/01/02 06:34:46;;;;;;;20.37;10.30;;;8.90;99.90;;;;;;4961328;28;20236;-73
2022/01/02 06:37:13;;;;;;;20.83;11.53;;;8.90;99.90;;;;;;4972555;28;20195;-71
2022/01/02 06:39:39;;;;;;;28.33;11.23;;;8.90;99.90;;;;;;4965794;28;20197;-71
2022/01/02 06:42:06;;;;;;;29.87;11.40;;;8.90;99.90;;;;;;4965183;28;20224;-70
2022/01/02 06:44:33;;;;;;;22.00;10.93;;;8.90;99.90;;;;;;4969530;28;20267;-73
2022/01/02 06:47:00;;;;;;;19.77;11.00;;;8.80;99.90;;;;;;4966942;28;20205;-71
2022/01/02 06:49:27;;;;;;;19.23;10.67;;;8.90;99.90;;;;;;4962945;28;20699;-71
2022/01/02 06:51:53;;;;;;;35.03;11.33;;;8.90;99.90;;;;;;4957001;28;20217;-72
2022/01/02 06:54:20;;;;;;;31.10;11.40;;;8.90;99.90;;;;;;4965826;28;20240;-71
2022/01/02 06:56:47;;;;;;;21.30;10.93;;;8.90;99.90;;;;;;4967702;28;20201;-71
2022/01/02 06:59:14;;;;;;;20.30;10.83;;;8.80;99.90;;;;;;4969164;28;20197;-71
2022/01/02 07:01:41;;;;;;;32.97;12.97;;;8.80;99.90;;;;;;4970634;28;20269;-71
2022/01/02 07:04:08;;;;;;;19.97;11.00;;;8.90;99.90;;;;;;4971106;28;20219;-71
2022/01/02 07:06:35;;;;;;;27.97;12.03;;;9.00;99.90;;;;;;4971343;28;20196;-73
2022/01/02 07:09:02;;;;;;;24.63;11.30;;;9.10;99.90;;;;;;4964934;28;20208;-71
2022/01/02 07:11:29;;;;;;;24.73;10.83;;;8.90;99.90;;;;;;4964580;28;20202;-71
2022/01/02 07:13:56;;;;;;;24.67;11.23;;;8.80;99.90;;;;;;4970629;28;20221;-71
2022/01/02 07:16:22;;;;;;;27.57;12.20;;;8.80;99.90;;;;;;4967091;28;20221;-70
2022/01/02 07:18:49;;;;;;;20.07;11.10;;;8.80;99.90;;;;;;4969287;28;20197;-70
2022/01/02 07:21:17;;;;;;;43.87;11.30;;;8.80;99.90;;;;;;4967413;28;20586;-71
2022/01/02 07:23:44;;;;;;;43.47;11.37;;;8.60;99.90;;;;;;4966093;28;20280;-72
2022/01/02 07:26:11;;;;;;;27.37;10.90;;;8.50;99.90;;;;;;4968392;28;20706;-70
2022/01/02 07:28:38;;;;;;;21.10;10.97;;;8.50;99.90;;;;;;4983797;28;20205;-70
2022/01/02 07:31:05;;;;;;;21.97;9.97;;;8.50;99.90;;;;;;4968867;28;20208;-74
2022/01/02 07:33:31;;;;;;;25.30;11.10;;;8.60;99.90;;;;;;4970067;28;20563;-71
2022/01/02 07:35:58;;;;;;;20.80;11.20;;;8.70;99.90;;;;;;4971703;28;20220;-71
2022/01/02 07:38:30;;;;;;;22.70;11.33;;;8.80;99.90;;;;;;4971324;28;20676;-71
2022/01/02 07:40:57;;;;;;;20.00;10.70;;;8.70;99.90;;;;;;4964301;28;20194;-71
2022/01/02 07:43:24;;;;;;;24.53;11.50;;;8.70;99.90;;;;;;4965067;28;20194;-72
2022/01/02 07:45:50;;;;;;;36.57;11.40;;;8.70;99.90;;;;;;4964727;28;20236;-69
2022/01/02 07:48:17;;;;;;;21.07;10.83;;;8.70;99.90;;;;;;4974165;28;20265;-72
2022/01/02 07:50:44;;;;;;;27.93;11.63;;;8.70;99.90;;;;;;4968866;28;20218;-71
2022/01/02 07:53:10;;;;;;;25.80;11.47;;;8.80;99.90;;;;;;4969241;28;20197;-71
2022/01/02 07:55:37;;;;;;;23.80;11.77;;;8.80;99.90;;;;;;4969503;28;20217;-71
2022/01/02 07:58:04;;;;;;;25.03;11.27;;;8.90;99.90;;;;;;4974380;28;20190;-71
2022/01/02 08:00:30;;;;;;;27.53;12.93;;;9.00;99.90;;;;;;4975358;28;20210;-71
2022/01/02 08:02:57;;;;;;;23.43;12.13;;;8.90;99.90;;;;;;4962141;28;20191;-71
2022/01/02 08:05:24;;;;;;;21.93;11.27;;;8.90;99.90;;;;;;4975010;28;20217;-71
2022/01/02 08:07:51;;;;;;;20.37;10.70;;;8.80;99.90;;;;;;4969944;28;20220;-68
2022/01/02 08:10:18;;;;;;;24.83;11.70;;;8.80;99.90;;;;;;4961758;28;20210;-71
2022/01/02 08:12:44;;;;;;;26.03;12.10;;;8.80;99.90;;;;;;4955454;28;20199;-71
2022/01/02 08:15:11;;;;;;;23.17;11.33;;;8.90;99.90;;;;;;4953105;28;20233;-70
2022/01/02 08:17:38;;;;;;;28.10;12.07;;;8.90;99.90;;;;;;4967784;28;20203;-71
2022/01/02 08:20:05;;;;;;;27.80;12.00;;;9.00;99.90;;;;;;4966923;28;20198;-73
2022/01/02 08:22:32;;;;;;;22.93;10.70;;;9.10;99.90;;;;;;4967994;28;20199;-71
2022/01/02 08:24:58;;;;;;;23.97;10.30;;;9.00;99.90;;;;;;4964774;28;20287;-73
2022/01/02 08:27:25;;;;;;;24.53;9.67;;;8.90;99.90;;;;;;4972128;28;20219;-71
2022/01/02 08:29:52;;;;;;;18.10;8.67;;;9.00;99.90;;;;;;4970023;28;20205;-69
2022/01/02 08:32:18;;;;;;;23.13;9.27;;;9.00;99.90;;;;;;4969615;28;20206;-73
2022/01/02 08:34:51;;;;;;;15.67;8.20;;;8.90;99.90;;;;;;4966695;28;20221;-70
2022/01/02 08:37:18;;;;;;;19.93;9.10;;;8.90;99.90;;;;;;4959525;28;20202;-70
2022/01/02 08:39:45;;;;;;;19.67;9.57;;;9.00;99.90;;;;;;4963599;28;20193;-70
2022/01/02 08:42:13;;;;;;;23.13;10.17;;;9.00;99.90;;;;;;4971767;28;20189;-70
2022/01/02 08:44:41;;;;;;;17.33;8.90;;;9.00;99.90;;;;;;4964175;28;20209;-72
2022/01/02 08:47:08;;;;;;;22.03;9.30;;;9.10;99.90;;;;;;4964465;28;20202;-70
2022/01/02 08:49:35;;;;;;;20.97;9.10;;;9.10;99.90;;;;;;4969543;28;20217;-72
2022/01/02 08:52:03;;;;;;;19.47;9.40;;;9.00;99.90;;;;;;4963727;28;20665;-71
2022/01/02 08:54:29;;;;;;;19.97;9.63;;;9.00;99.90;;;;;;4970907;28;20214;-71
2022/01/02 08:56:56;;;;;;;19.23;9.37;;;9.00;99.90;;;;;;4961131;28;20761;-70
2022/01/02 08:59:27;;;;;;;19.00;9.00;;;9.10;99.90;;;;;;4966642;28;20198;-71
2022/01/02 09:01:55;;;;;;;23.77;9.27;;;9.10;99.90;;;;;;4967992;28;20258;-69
2022/01/02 09:04:22;;;;;;;21.50;9.60;;;9.20;99.90;;;;;;4970731;28;20746;-71
2022/01/02 09:06:49;;;;;;;19.07;9.83;;;9.30;99.90;;;;;;4969541;28;20202;-72
2022/01/02 09:09:15;;;;;;;21.10;10.97;;;9.40;99.90;;;;;;4966674;28;20233;-71
2022/01/02 09:11:42;;;;;;;23.77;11.80;;;9.40;99.90;;;;;;4962528;28;20238;-69
2022/01/02 09:14:09;;;;;;;25.17;11.70;;;9.40;99.90;;;;;;4970385;28;20353;-71
2022/01/02 09:16:35;;;;;;;22.23;12.50;;;9.50;99.90;;;;;;4969831;28;20228;-72
2022/01/02 09:19:02;;;;;;;26.53;13.20;;;9.50;99.90;;;;;;4969670;28;20281;-70
2022/01/02 09:21:29;;;;;;;20.57;12.27;;;9.50;99.90;;;;;;4969047;28;20606;-70
2022/01/02 09:23:55;;;;;;;20.23;10.80;;;9.50;99.90;;;;;;4969756;28;20219;-70
2022/01/02 09:26:22;;;;;;;18.40;10.07;;;9.60;99.90;;;;;;4969917;28;20203;-71
2022/01/02 09:28:49;;;;;;;16.10;9.63;;;9.50;99.90;;;;;;4963669;28;20211;-71
2022/01/02 09:31:15;;;;;;;20.93;10.20;;;9.60;99.90;;;;;;4961387;28;20204;-70
2022/01/02 09:33:42;;;;;;;18.63;9.27;;;9.60;99.90;;;;;;4969976;28;20239;-71
2022/01/02 09:36:09;;;;;;;18.43;9.83;;;9.70;99.90;;;;;;4964157;28;20259;-73
2022/01/02 09:38:35;;;;;;;18.93;10.00;;;9.80;99.90;;;;;;4964132;28;20194;-71
2022/01/02 09:41:04;;;;;;;21.50;11.13;;;9.90;99.90;;;;;;4965228;28;20624;-71
2022/01/02 09:43:31;;;;;;;23.77;11.47;;;9.90;99.90;;;;;;4957052;28;20190;-71
2022/01/02 09:45:59;;;;;;;23.07;10.37;;;9.90;99.90;;;;;;4969186;28;20211;-73
2022/01/02 09:48:33;;;;;;;26.40;11.17;;;9.90;99.90;;;;;;4968315;28;20219;-69
2022/01/02 09:51:01;;;;;;;22.50;9.80;;;9.70;99.90;;;;;;4969029;28;20576;-71
2022/01/02 09:53:28;;;;;;;20.30;10.27;;;9.80;99.90;;;;;;4955485;28;20202;-71
2022/01/02 09:55:55;;;;;;;19.83;10.33;;;9.90;99.90;;;;;;4971155;28;20246;-69
2022/01/02 09:58:22;;;;;;;19.40;10.50;;;10.00;99.90;;;;;;4963164;28;20841;-70
2022/01/02 10:00:49;;;;;;;18.10;10.27;;;10.10;99.90;;;;;;4967570;28;20257;-70
2022/01/02 10:03:17;;;;;;;20.53;10.07;;;10.10;99.90;;;;;;4962795;28;20299;-70
2022/01/02 10:06:01;;;;;;;20.47;11.73;;;10.10;99.90;;;;;;4955686;28;20760;-70
2022/01/02 10:08:30;;;;;;;19.43;11.17;;;10.10;99.90;;;;;;4966763;28;20243;-70
2022/01/02 10:10:59;;;;;;;24.30;11.57;;;10.10;99.90;;;;;;4965314;28;20203;-72
2022/01/02 10:13:46;;;;;;;21.00;11.27;;;10.20;99.90;;;;;;4975643;28;20289;-71
2022/01/02 10:16:36;;;;;;;20.47;11.17;;;10.10;99.90;;;;;;4973762;28;20214;-69
2022/01/02 10:19:26;;;;;;;17.90;10.63;;;10.00;99.90;;;;;;4964155;28;20235;-70
2022/01/02 10:21:57;;;;;;;19.40;10.13;;;10.00;99.90;;;;;;4962109;28;20292;-70
2022/01/02 10:24:27;;;;;;;21.20;11.73;;;9.90;99.90;;;;;;4969992;28;20739;-71
2022/01/02 10:27:14;;;;;;;21.63;11.60;;;10.00;99.90;;;;;;4971192;28;20729;-70
2022/01/02 10:29:54;;;;;;;23.77;10.27;;;10.00;99.90;;;;;;4973438;28;20212;-70
2022/01/02 10:32:35;;;;;;;21.10;11.27;;;9.90;99.90;;;;;;4973288;28;20219;-70
2022/01/02 10:35:16;;;;;;;19.13;10.57;;;9.90;99.90;;;;;;4970666;28;20717;-70
2022/01/02 10:37:52;;;;;;;17.23;9.67;;;10.00;99.90;;;;;;4961612;28;20198;-72
2022/01/02 10:40:28;;;;;;;16.27;9.37;;;9.80;99.90;;;;;;4968927;28;20206;-69
2022/01/02 10:42:56;;;;;;;16.70;9.90;;;9.80;99.90;;;;;;4970678;28;20201;-70
2022/01/02 10:45:50;;;;;;;16.47;9.53;;;9.60;99.90;;;;;;4972470;28;20223;-70
2022/01/02 10:48:29;;;;;;;16.27;9.03;;;9.80;99.90;;;;;;4967767;28;20202;-67
2022/01/02 10:51:11;;;;;;;15.30;8.87;;;9.80;99.90;;;;;;4971252;28;20650;-70
2022/01/02 10:53:52;;;;;;;17.23;9.77;;;9.90;99.90;;;;;;4972573;28;20700;-70
2022/01/02 10:56:22;;;;;;;17.70;9.83;;;9.80;99.90;;;;;;4973662;28;20227;-72
2022/01/02 10:58:57;;;;;;;14.13;8.53;;;9.90;99.90;;;;;;4967893;28;20277;-69
2022/01/02 11:01:23;;;;;;;16.30;9.47;;;9.90;99.90;;;;;;4970302;28;20203;-71
2022/01/02 11:03:51;;;;;;;15.57;9.40;;;10.10;99.90;;;;;;4971028;28;20198;-70
2022/01/02 11:06:27;;;;;;;15.57;9.50;;;10.10;99.90;;;;;;4966179;28;20690;-71
2022/01/02 11:08:57;;;;;;;20.30;10.33;;;10.20;99.90;;;;;;4964924;28;20218;-71
2022/01/02 11:11:24;;;;;;;15.63;9.40;;;10.20;99.90;;;;;;4970890;28;20629;-70
2022/01/02 11:13:51;;;;;;;20.47;10.93;;;10.20;99.90;;;;;;4961349;28;20258;-70
2022/01/02 11:16:18;;;;;;;18.83;11.17;;;10.20;99.90;;;;;;4969502;28;20589;-70
2022/01/02 11:18:47;;;;;;;20.90;10.40;;;10.10;99.90;;;;;;4965577;28;20299;-68
2022/01/02 11:21:14;;;;;;;19.67;10.73;;;10.00;99.90;;;;;;4971874;28;20198;-71
2022/01/02 11:24:01;;;;;;;20.83;12.10;;;10.00;99.90;;;;;;4970306;28;20192;-71
2022/01/02 11:26:57;;;;;;;23.33;11.50;;;10.00;99.90;;;;;;4970230;28;20198;-70
2022/01/02 11:29:28;;;;;;;18.77;11.07;;;10.10;99.90;;;;;;4967586;28;20213;-70
2022/01/02 11:31:56;;;;;;;23.40;11.33;;;10.10;99.90;;;;;;4970923;28;20751;-69
2022/01/02 11:34:28;;;;;;;17.03;10.63;;;10.10;99.90;;;;;;4971136;28;20637;-72
2022/01/02 11:37:26;;;;;;;17.30;9.33;;;10.30;99.90;;;;;;4970726;28;20309;-70
2022/01/02 11:40:01;;;;;;;17.60;9.37;;;10.40;99.90;;;;;;4970988;28;20222;-71
2022/01/02 11:42:42;;;;;;;15.47;9.30;;;10.50;99.90;;;;;;4970360;28;20684;-70
2022/01/02 11:45:22;;;;;;;18.13;10.00;;;10.40;99.90;;;;;;4965064;28;20221;-71
2022/01/02 11:47:49;;;;;;;18.00;10.63;;;10.50;99.90;;;;;;4973260;28;20471;-71
2022/01/02 11:50:35;;;;;;;17.07;9.37;;;10.60;99.90;;;;;;4970593;28;20219;-73
2022/01/02 11:53:16;;;;;;;14.70;9.33;;;10.60;99.90;;;;;;4971382;28;20204;-72
2022/01/02 11:55:44;;;;;;;15.53;9.60;;;10.50;99.90;;;;;;4969208;28;20223;-71
2022/01/02 11:58:11;;;;;;;16.03;9.60;;;10.30;99.90;;;;;;4965672;28;20222;-70
2022/01/02 12:00:39;;;;;;;18.13;10.60;;;10.30;99.90;;;;;;4965717;28;20200;-70
2022/01/02 12:03:45;;;;;;;15.53;9.97;;;10.40;99.90;;;;;;4967208;28;20577;-71
2022/01/02 12:06:33;;;;;;;17.10;10.33;;;10.50;99.90;;;;;;4963365;28;20204;-70
2022/01/02 12:09:02;;;;;;;15.57;9.03;;;10.70;99.90;;;;;;4971454;28;20256;-70
2022/01/02 12:11:32;;;;;;;16.73;10.40;;;10.90;99.90;;;;;;4970019;28;20213;-72
2022/01/02 12:14:07;;;;;;;15.33;9.97;;;11.00;99.90;;;;;;4953899;28;20214;-70
2022/01/02 12:16:42;;;;;;;15.33;9.80;;;11.10;99.90;;;;;;4976172;28;20222;-72
2022/01/02 12:19:09;;;;;;;18.23;10.60;;;11.10;99.90;;;;;;4976269;28;20624;-71
2022/01/02 12:21:37;;;;;;;18.23;10.40;;;11.10;99.90;;;;;;4970459;28;20197;-78
2022/01/02 12:24:12;;;;;;;20.47;10.77;;;11.10;99.90;;;;;;4970618;28;20224;-72
2022/01/02 12:26:39;;;;;;;17.87;10.30;;;10.90;99.90;;;;;;4967570;28;20208;-72
2022/01/02 12:29:12;;;;;;;16.60;9.60;;;10.60;99.90;;;;;;4963315;28;20200;-72
2022/01/02 12:31:41;;;;;;;15.70;9.53;;;10.40;99.90;;;;;;4962792;28;20200;-71
2022/01/02 12:34:19;;;;;;;16.70;10.03;;;10.30;99.90;;;;;;4965878;28;20238;-70
2022/01/02 12:36:48;;;;;;;19.13;10.57;;;10.40;99.90;;;;;;4962384;28;20266;-71
2022/01/02 12:39:27;;;;;;;18.27;11.47;;;10.60;99.90;;;;;;4968710;28;20275;-72
2022/01/02 12:42:14;;;;;;;20.10;11.10;;;10.60;99.90;;;;;;4964494;28;20615;-76
2022/01/02 12:44:42;;;;;;;15.83;9.63;;;10.50;99.90;;;;;;4963528;28;20224;-70
2022/01/02 12:47:19;;;;;;;18.60;10.43;;;10.70;99.90;;;;;;4967312;28;20204;-72
2022/01/02 12:49:47;;;;;;;20.33;10.33;;;10.80;99.90;;;;;;4966116;28;20217;-72
2022/01/02 12:52:16;;;;;;;16.30;10.17;;;10.90;99.90;;;;;;4962055;28;20212;-70